sensor_id;sensor_type;location;lat;lon;timestamp;pressure;altitude;pressure_sealevel;temperature;humidity
11347;BME280;5728;42.722;23.258;2023-07-29T00:00:07;94640.28;;;20.08;61.29
11347;BME280;5728;42.722;23.258;2023-07-29T00:02:34;94638.38;;;19.79;61.41
11347;BME280;5728;42.722;23.258;2023-07-29T00:05:01;94625.97;;;19.81;62.12
11347;BME280;5728;42.722;23.258;2023-07-29T00:07:28;94629.91;;;20.05;60.95
11347;BME280;5728;42.722;23.258;2023-07-29T00:09:56;94630.66;;;20.07;61.34
11347;BME280;5728;42.722;23.258;2023-07-29T00:12:23;94630.19;;;20.16;61.44
11347;BME280;5728;42.722;23.258;2023-07-29T00:14:50;94626.34;;;20.06;61.83
11347;BME280;5728;42.722;23.258;2023-07-29T00:17:17;94617.50;;;20.07;61.48
11347;BME280;5728;42.722;23.258;2023-07-29T00:19:45;94627.72;;;20.13;61.08
11347;BME280;5728;42.722;23.258;2023-07-29T00:22:12;94618.03;;;20.13;60.85
11347;BME280;5728;42.722;23.258;2023-07-29T00:24:39;94614.13;;;20.05;61.85
11347;BME280;5728;42.722;23.258;2023-07-29T00:27:07;94611.03;;;19.97;61.93
11347;BME280;5728;42.722;23.258;2023-07-29T00:29:34;94617.66;;;19.88;61.85
11347;BME280;5728;42.722;23.258;2023-07-29T00:32:01;94612.47;;;19.87;62.23
11347;BME280;5728;42.722;23.258;2023-07-29T00:34:28;94603.97;;;19.82;62.58
11347;BME280;5728;42.722;23.258;2023-07-29T00:36:56;94607.81;;;19.92;62.44
11347;BME280;5728;42.722;23.258;2023-07-29T00:39:23;94606.28;;;19.88;62.27
11347;BME280;5728;42.722;23.258;2023-07-29T00:41:49;94618.44;;;19.90;62.54
11347;BME280;5728;42.722;23.258;2023-07-29T00:44:18;94614.94;;;19.90;62.44
11347;BME280;5728;42.722;23.258;2023-07-29T00:46:45;94604.25;;;19.93;62.58
11347;BME280;5728;42.722;23.258;2023-07-29T00:49:13;94613.88;;;19.94;62.47
11347;BME280;5728;42.722;23.258;2023-07-29T00:51:39;94610.44;;;19.92;62.65
11347;BME280;5728;42.722;23.258;2023-07-29T00:54:06;94615.72;;;19.92;62.25
11347;BME280;5728;42.722;23.258;2023-07-29T00:56:33;94618.53;;;19.89;62.44
11347;BME280;5728;42.722;23.258;2023-07-29T00:59:01;94613.75;;;19.80;62.57
11347;BME280;5728;42.722;23.258;2023-07-29T01:01:29;94604.47;;;19.72;63.01
11347;BME280;5728;42.722;23.258;2023-07-29T01:03:56;94604.47;;;19.72;63.58
11347;BME280;5728;42.722;23.258;2023-07-29T01:06:28;94604.88;;;19.65;63.73
11347;BME280;5728;42.722;23.258;2023-07-29T01:09:00;94604.72;;;19.68;63.86
11347;BME280;5728;42.722;23.258;2023-07-29T01:11:35;94605.00;;;19.46;64.08
11347;BME280;5728;42.722;23.258;2023-07-29T01:14:11;94603.97;;;19.49;63.83
11347;BME280;5728;42.722;23.258;2023-07-29T01:16:49;94602.97;;;19.34;64.01
11347;BME280;5728;42.722;23.258;2023-07-29T01:19:32;94605.47;;;19.37;64.12
11347;BME280;5728;42.722;23.258;2023-07-29T01:22:07;94605.94;;;19.28;64.48
11347;BME280;5728;42.722;23.258;2023-07-29T01:24:36;94606.25;;;19.22;64.64
11347;BME280;5728;42.722;23.258;2023-07-29T01:27:03;94615.03;;;19.21;64.48
11347;BME280;5728;42.722;23.258;2023-07-29T01:29:31;94611.19;;;19.11;64.70
11347;BME280;5728;42.722;23.258;2023-07-29T01:32:03;94602.44;;;19.28;64.98
11347;BME280;5728;42.722;23.258;2023-07-29T01:34:41;94606.50;;;19.00;65.18
11347;BME280;5728;42.722;23.258;2023-07-29T01:37:12;94605.31;;;19.06;65.09
11347;BME280;5728;42.722;23.258;2023-07-29T01:39:44;94611.28;;;18.92;64.14
11347;BME280;5728;42.722;23.258;2023-07-29T01:42:11;94606.16;;;19.06;63.79
11347;BME280;5728;42.722;23.258;2023-07-29T01:44:39;94603.28;;;19.11;63.63
11347;BME280;5728;42.722;23.258;2023-07-29T01:47:07;94608.41;;;19.14;63.89
11347;BME280;5728;42.722;23.258;2023-07-29T01:49:34;94604.72;;;19.18;63.71
11347;BME280;5728;42.722;23.258;2023-07-29T01:52:01;94600.91;;;19.06;63.91
11347;BME280;5728;42.722;23.258;2023-07-29T01:54:28;94603.47;;;19.08;64.03
11347;BME280;5728;42.722;23.258;2023-07-29T01:56:56;94601.47;;;19.13;64.15
11347;BME280;5728;42.722;23.258;2023-07-29T01:59:23;94604.25;;;19.10;63.90
11347;BME280;5728;42.722;23.258;2023-07-29T02:01:50;94606.78;;;18.60;67.16
11347;BME280;5728;42.722;23.258;2023-07-29T02:04:17;94599.84;;;18.22;69.22
11347;BME280;5728;42.722;23.258;2023-07-29T02:06:43;94608.31;;;18.45;67.75
11347;BME280;5728;42.722;23.258;2023-07-29T02:09:10;94605.97;;;18.58;67.14
11347;BME280;5728;42.722;23.258;2023-07-29T02:11:37;94608.69;;;18.74;67.05
11347;BME280;5728;42.722;23.258;2023-07-29T02:14:05;94614.41;;;18.65;67.71
11347;BME280;5728;42.722;23.258;2023-07-29T02:16:31;94614.56;;;18.62;67.91
11347;BME280;5728;42.722;23.258;2023-07-29T02:18:59;94618.56;;;18.52;67.63
11347;BME280;5728;42.722;23.258;2023-07-29T02:21:26;94610.84;;;18.66;67.14
11347;BME280;5728;42.722;23.258;2023-07-29T02:23:53;94600.44;;;18.64;67.02
11347;BME280;5728;42.722;23.258;2023-07-29T02:26:20;94610.69;;;18.69;66.77
11347;BME280;5728;42.722;23.258;2023-07-29T02:28:46;94608.84;;;18.71;66.85
11347;BME280;5728;42.722;23.258;2023-07-29T02:31:17;94608.16;;;18.67;65.95
11347;BME280;5728;42.722;23.258;2023-07-29T02:33:44;94609.59;;;18.56;66.93
11347;BME280;5728;42.722;23.258;2023-07-29T02:36:12;94609.16;;;18.65;66.50
11347;BME280;5728;42.722;23.258;2023-07-29T02:38:39;94616.06;;;18.48;66.89
11347;BME280;5728;42.722;23.258;2023-07-29T02:41:07;94609.31;;;18.43;66.99
11347;BME280;5728;42.722;23.258;2023-07-29T02:43:35;94610.31;;;18.40;67.32
11347;BME280;5728;42.722;23.258;2023-07-29T02:46:01;94617.13;;;18.44;67.22
11347;BME280;5728;42.722;23.258;2023-07-29T02:48:30;94615.56;;;18.40;67.72
11347;BME280;5728;42.722;23.258;2023-07-29T02:50:56;94620.28;;;18.53;67.37
11347;BME280;5728;42.722;23.258;2023-07-29T02:53:23;94628.91;;;18.55;66.95
11347;BME280;5728;42.722;23.258;2023-07-29T02:55:50;94627.34;;;18.51;67.40
11347;BME280;5728;42.722;23.258;2023-07-29T02:58:16;94614.63;;;18.41;67.67
11347;BME280;5728;42.722;23.258;2023-07-29T03:00:43;94633.53;;;18.31;68.11
11347;BME280;5728;42.722;23.258;2023-07-29T03:03:10;94628.63;;;18.23;67.98
11347;BME280;5728;42.722;23.258;2023-07-29T03:05:38;94634.66;;;18.25;67.95
11347;BME280;5728;42.722;23.258;2023-07-29T03:08:05;94638.94;;;18.09;69.03
11347;BME280;5728;42.722;23.258;2023-07-29T03:10:34;94628.06;;;17.98;68.54
11347;BME280;5728;42.722;23.258;2023-07-29T03:13:01;94636.44;;;18.06;69.48
11347;BME280;5728;42.722;23.258;2023-07-29T03:15:28;94630.78;;;17.97;69.87
11347;BME280;5728;42.722;23.258;2023-07-29T03:17:54;94634.41;;;17.94;69.76
11347;BME280;5728;42.722;23.258;2023-07-29T03:20:21;94635.03;;;17.99;69.88
11347;BME280;5728;42.722;23.258;2023-07-29T03:22:49;94639.84;;;18.08;69.61
11347;BME280;5728;42.722;23.258;2023-07-29T03:25:16;94641.47;;;18.11;69.21
11347;BME280;5728;42.722;23.258;2023-07-29T03:27:43;94632.75;;;18.10;69.36
11347;BME280;5728;42.722;23.258;2023-07-29T03:30:10;94644.91;;;17.94;69.55
11347;BME280;5728;42.722;23.258;2023-07-29T03:32:42;94643.94;;;17.95;69.70
11347;BME280;5728;42.722;23.258;2023-07-29T03:35:09;94637.16;;;17.91;69.30
11347;BME280;5728;42.722;23.258;2023-07-29T03:37:36;94632.63;;;17.95;69.67
11347;BME280;5728;42.722;23.258;2023-07-29T03:40:06;94653.66;;;17.93;70.14
11347;BME280;5728;42.722;23.258;2023-07-29T03:42:34;94636.25;;;17.92;69.53
11347;BME280;5728;42.722;23.258;2023-07-29T03:45:01;94646.09;;;17.87;69.34
11347;BME280;5728;42.722;23.258;2023-07-29T03:47:28;94635.75;;;17.84;69.84
11347;BME280;5728;42.722;23.258;2023-07-29T03:49:54;94635.19;;;17.96;69.11
11347;BME280;5728;42.722;23.258;2023-07-29T03:52:21;94640.50;;;17.95;68.49
11347;BME280;5728;42.722;23.258;2023-07-29T03:54:48;94637.34;;;18.05;69.42
11347;BME280;5728;42.722;23.258;2023-07-29T03:57:16;94631.47;;;18.19;68.10
11347;BME280;5728;42.722;23.258;2023-07-29T03:59:43;94638.00;;;18.10;68.37
11347;BME280;5728;42.722;23.258;2023-07-29T04:02:10;94643.13;;;18.13;68.90
11347;BME280;5728;42.722;23.258;2023-07-29T04:04:37;94646.44;;;18.35;68.00
11347;BME280;5728;42.722;23.258;2023-07-29T04:07:04;94643.59;;;18.40;67.69
11347;BME280;5728;42.722;23.258;2023-07-29T04:09:31;94636.81;;;18.72;66.33
11347;BME280;5728;42.722;23.258;2023-07-29T04:11:58;94651.69;;;18.90;65.43
11347;BME280;5728;42.722;23.258;2023-07-29T04:14:26;94644.34;;;18.96;65.58
11347;BME280;5728;42.722;23.258;2023-07-29T04:16:52;94639.56;;;19.04;65.18
11347;BME280;5728;42.722;23.258;2023-07-29T04:19:19;94644.75;;;19.23;64.35
11347;BME280;5728;42.722;23.258;2023-07-29T04:21:46;94647.59;;;19.19;64.34
11347;BME280;5728;42.722;23.258;2023-07-29T04:24:13;94644.78;;;19.40;64.30
11347;BME280;5728;42.722;23.258;2023-07-29T04:26:39;94646.75;;;19.52;63.89
11347;BME280;5728;42.722;23.258;2023-07-29T04:29:06;94643.50;;;19.64;63.72
11347;BME280;5728;42.722;23.258;2023-07-29T04:31:34;94650.25;;;19.86;62.89
11347;BME280;5728;42.722;23.258;2023-07-29T04:34:01;94650.47;;;19.98;62.32
11347;BME280;5728;42.722;23.258;2023-07-29T04:36:28;94653.53;;;20.22;61.10
11347;BME280;5728;42.722;23.258;2023-07-29T04:38:54;94650.66;;;20.11;61.75
11347;BME280;5728;42.722;23.258;2023-07-29T04:41:21;94658.19;;;20.34;61.14
11347;BME280;5728;42.722;23.258;2023-07-29T04:43:48;94654.34;;;20.24;61.17
11347;BME280;5728;42.722;23.258;2023-07-29T04:46:15;94655.09;;;20.57;60.78
11347;BME280;5728;42.722;23.258;2023-07-29T04:48:44;94661.06;;;20.45;60.90
11347;BME280;5728;42.722;23.258;2023-07-29T04:51:10;94651.13;;;20.50;60.71
11347;BME280;5728;42.722;23.258;2023-07-29T04:53:37;94658.84;;;20.69;60.89
11347;BME280;5728;42.722;23.258;2023-07-29T04:56:04;94662.56;;;20.80;59.77
11347;BME280;5728;42.722;23.258;2023-07-29T04:58:31;94677.34;;;20.98;59.39
11347;BME280;5728;42.722;23.258;2023-07-29T05:01:00;94683.47;;;21.15;58.76
11347;BME280;5728;42.722;23.258;2023-07-29T05:03:28;94666.41;;;21.36;58.49
11347;BME280;5728;42.722;23.258;2023-07-29T05:05:57;94679.28;;;21.56;58.40
11347;BME280;5728;42.722;23.258;2023-07-29T05:08:24;94678.03;;;21.91;57.99
11347;BME280;5728;42.722;23.258;2023-07-29T05:10:51;94678.03;;;22.05;57.33
11347;BME280;5728;42.722;23.258;2023-07-29T05:13:19;94676.91;;;22.38;56.11
11347;BME280;5728;42.722;23.258;2023-07-29T05:15:47;94677.31;;;22.17;56.72
11347;BME280;5728;42.722;23.258;2023-07-29T05:18:14;94678.03;;;22.34;56.29
11347;BME280;5728;42.722;23.258;2023-07-29T05:20:41;94684.94;;;22.50;55.40
11347;BME280;5728;42.722;23.258;2023-07-29T05:23:09;94678.16;;;22.87;54.54
11347;BME280;5728;42.722;23.258;2023-07-29T05:25:36;94684.81;;;23.07;53.81
11347;BME280;5728;42.722;23.258;2023-07-29T05:28:03;94671.84;;;23.29;52.86
11347;BME280;5728;42.722;23.258;2023-07-29T05:30:30;94683.72;;;23.50;52.80
11347;BME280;5728;42.722;23.258;2023-07-29T05:32:57;94684.78;;;23.60;50.95
11347;BME280;5728;42.722;23.258;2023-07-29T05:35:24;94682.00;;;24.14;50.73
11347;BME280;5728;42.722;23.258;2023-07-29T05:37:51;94690.13;;;23.98;50.88
11347;BME280;5728;42.722;23.258;2023-07-29T05:40:19;94682.53;;;24.31;49.81
11347;BME280;5728;42.722;23.258;2023-07-29T05:42:46;94688.41;;;24.60;49.26
11347;BME280;5728;42.722;23.258;2023-07-29T05:45:13;94689.06;;;24.63;48.68
11347;BME280;5728;42.722;23.258;2023-07-29T05:47:40;94695.22;;;24.51;49.54
11347;BME280;5728;42.722;23.258;2023-07-29T05:50:08;94689.72;;;24.54;49.41
11347;BME280;5728;42.722;23.258;2023-07-29T05:52:36;94700.47;;;24.89;48.86
11347;BME280;5728;42.722;23.258;2023-07-29T05:55:04;94686.28;;;25.38;47.91
11347;BME280;5728;42.722;23.258;2023-07-29T05:57:32;94689.22;;;25.69;47.04
11347;BME280;5728;42.722;23.258;2023-07-29T05:59:59;94684.88;;;25.45;47.46
11347;BME280;5728;42.722;23.258;2023-07-29T06:02:25;94694.97;;;25.40;47.46
11347;BME280;5728;42.722;23.258;2023-07-29T06:04:52;94689.63;;;25.52;47.08
11347;BME280;5728;42.722;23.258;2023-07-29T06:07:19;94699.88;;;25.80;46.29
11347;BME280;5728;42.722;23.258;2023-07-29T06:09:46;94683.09;;;25.45;46.98
11347;BME280;5728;42.722;23.258;2023-07-29T06:12:12;94687.50;;;25.21;48.12
11347;BME280;5728;42.722;23.258;2023-07-29T06:14:41;94684.63;;;25.24;48.20
11347;BME280;5728;42.722;23.258;2023-07-29T06:17:07;94692.88;;;25.32;47.99
11347;BME280;5728;42.722;23.258;2023-07-29T06:19:36;94675.66;;;25.61;47.58
11347;BME280;5728;42.722;23.258;2023-07-29T06:22:04;94679.13;;;25.96;46.57
11347;BME280;5728;42.722;23.258;2023-07-29T06:24:31;94681.56;;;26.11;45.61
11347;BME280;5728;42.722;23.258;2023-07-29T06:26:58;94670.22;;;25.97;46.13
11347;BME280;5728;42.722;23.258;2023-07-29T06:29:27;94670.63;;;26.26;46.01
11347;BME280;5728;42.722;23.258;2023-07-29T06:31:55;94670.13;;;26.21;45.78
11347;BME280;5728;42.722;23.258;2023-07-29T06:34:22;94663.25;;;26.41;45.22
11347;BME280;5728;42.722;23.258;2023-07-29T06:36:49;94664.56;;;26.69;45.03
11347;BME280;5728;42.722;23.258;2023-07-29T06:39:15;94672.22;;;26.84;43.69
11347;BME280;5728;42.722;23.258;2023-07-29T06:41:42;94657.81;;;26.98;44.08
11347;BME280;5728;42.722;23.258;2023-07-29T06:44:09;94663.22;;;27.07;43.64
11347;BME280;5728;42.722;23.258;2023-07-29T06:46:37;94659.78;;;27.39;42.52
11347;BME280;5728;42.722;23.258;2023-07-29T06:49:05;94670.91;;;27.44;42.25
11347;BME280;5728;42.722;23.258;2023-07-29T06:51:32;94656.63;;;27.34;42.65
11347;BME280;5728;42.722;23.258;2023-07-29T06:54:01;94663.31;;;27.17;43.34
11347;BME280;5728;42.722;23.258;2023-07-29T06:56:28;94665.97;;;27.60;41.99
11347;BME280;5728;42.722;23.258;2023-07-29T06:58:55;94667.44;;;27.64;41.75
11347;BME280;5728;42.722;23.258;2023-07-29T07:01:22;94670.69;;;27.88;41.58
11347;BME280;5728;42.722;23.258;2023-07-29T07:03:49;94666.41;;;27.76;41.34
11347;BME280;5728;42.722;23.258;2023-07-29T07:06:21;94670.22;;;27.83;41.49
11347;BME280;5728;42.722;23.258;2023-07-29T07:08:50;94673.66;;;28.06;41.14
11347;BME280;5728;42.722;23.258;2023-07-29T07:11:18;94665.41;;;27.98;40.71
11347;BME280;5728;42.722;23.258;2023-07-29T07:13:45;94669.91;;;27.97;40.31
11347;BME280;5728;42.722;23.258;2023-07-29T07:16:12;94669.28;;;28.25;40.21
11347;BME280;5728;42.722;23.258;2023-07-29T07:18:39;94665.50;;;28.07;40.27
11347;BME280;5728;42.722;23.258;2023-07-29T07:21:06;94662.47;;;28.12;40.17
11347;BME280;5728;42.722;23.258;2023-07-29T07:23:34;94659.69;;;28.64;39.87
11347;BME280;5728;42.722;23.258;2023-07-29T07:26:01;94666.09;;;28.92;38.83
11347;BME280;5728;42.722;23.258;2023-07-29T07:28:28;94655.88;;;29.06;37.86
11347;BME280;5728;42.722;23.258;2023-07-29T07:30:55;94656.97;;;28.34;39.45
11347;BME280;5728;42.722;23.258;2023-07-29T07:33:22;94654.97;;;28.57;39.65
11347;BME280;5728;42.722;23.258;2023-07-29T07:35:49;94654.38;;;28.74;39.20
11347;BME280;5728;42.722;23.258;2023-07-29T07:38:15;94651.75;;;28.93;38.11
11347;BME280;5728;42.722;23.258;2023-07-29T07:40:52;94651.03;;;28.91;37.48
11347;BME280;5728;42.722;23.258;2023-07-29T07:43:19;94641.81;;;27.93;38.40
11347;BME280;5728;42.722;23.258;2023-07-29T07:45:46;94651.06;;;27.89;39.57
11347;BME280;5728;42.722;23.258;2023-07-29T07:48:13;94648.78;;;28.86;39.53
11347;BME280;5728;42.722;23.258;2023-07-29T07:50:41;94651.59;;;29.34;38.17
11347;BME280;5728;42.722;23.258;2023-07-29T07:53:08;94647.81;;;29.65;35.60
11347;BME280;5728;42.722;23.258;2023-07-29T07:55:35;94655.41;;;29.60;36.65
11347;BME280;5728;42.722;23.258;2023-07-29T07:58:03;94653.44;;;29.72;36.71
11347;BME280;5728;42.722;23.258;2023-07-29T08:00:30;94656.22;;;30.28;35.81
11347;BME280;5728;42.722;23.258;2023-07-29T08:02:57;94652.28;;;29.36;36.80
11347;BME280;5728;42.722;23.258;2023-07-29T08:05:24;94649.81;;;29.83;36.21
11347;BME280;5728;42.722;23.258;2023-07-29T08:07:50;94651.91;;;29.98;35.34
11347;BME280;5728;42.722;23.258;2023-07-29T08:10:17;94651.09;;;30.54;35.76
11347;BME280;5728;42.722;23.258;2023-07-29T08:12:44;94653.50;;;30.47;35.39
11347;BME280;5728;42.722;23.258;2023-07-29T08:15:12;94650.00;;;30.83;35.07
11347;BME280;5728;42.722;23.258;2023-07-29T08:17:39;94657.28;;;30.54;34.71
11347;BME280;5728;42.722;23.258;2023-07-29T08:20:07;94645.31;;;30.58;34.70
11347;BME280;5728;42.722;23.258;2023-07-29T08:22:35;94662.94;;;30.51;34.80
11347;BME280;5728;42.722;23.258;2023-07-29T08:25:02;94653.78;;;30.54;34.41
11347;BME280;5728;42.722;23.258;2023-07-29T08:27:29;94655.63;;;30.80;33.93
11347;BME280;5728;42.722;23.258;2023-07-29T08:29:56;94648.56;;;31.16;33.65
11347;BME280;5728;42.722;23.258;2023-07-29T08:32:24;94644.31;;;30.96;33.71
11347;BME280;5728;42.722;23.258;2023-07-29T08:34:50;94650.63;;;30.68;34.31
11347;BME280;5728;42.722;23.258;2023-07-29T08:37:17;94654.69;;;31.09;34.14
11347;BME280;5728;42.722;23.258;2023-07-29T08:39:44;94637.94;;;31.42;32.95
11347;BME280;5728;42.722;23.258;2023-07-29T08:42:11;94640.22;;;31.19;33.35
11347;BME280;5728;42.722;23.258;2023-07-29T08:44:41;94644.38;;;30.40;34.74
11347;BME280;5728;42.722;23.258;2023-07-29T08:47:07;94632.81;;;30.30;33.82
11347;BME280;5728;42.722;23.258;2023-07-29T08:49:36;94632.63;;;29.95;34.66
11347;BME280;5728;42.722;23.258;2023-07-29T08:52:04;94636.84;;;29.88;35.55
11347;BME280;5728;42.722;23.258;2023-07-29T08:54:31;94630.00;;;31.05;35.86
11347;BME280;5728;42.722;23.258;2023-07-29T08:56:58;94624.47;;;31.34;33.05
11347;BME280;5728;42.722;23.258;2023-07-29T08:59:25;94619.38;;;31.76;31.39
11347;BME280;5728;42.722;23.258;2023-07-29T09:01:53;94632.44;;;31.96;30.00
11347;BME280;5728;42.722;23.258;2023-07-29T09:04:22;94628.97;;;32.22;29.59
11347;BME280;5728;42.722;23.258;2023-07-29T09:06:50;94624.06;;;31.56;29.54
11347;BME280;5728;42.722;23.258;2023-07-29T09:09:17;94625.00;;;31.37;29.73
11347;BME280;5728;42.722;23.258;2023-07-29T09:11:44;94621.31;;;32.27;29.28
11347;BME280;5728;42.722;23.258;2023-07-29T09:14:11;94619.31;;;32.54;28.66
11347;BME280;5728;42.722;23.258;2023-07-29T09:16:38;94614.31;;;32.59;29.02
11347;BME280;5728;42.722;23.258;2023-07-29T09:19:05;94613.91;;;32.80;28.32
11347;BME280;5728;42.722;23.258;2023-07-29T09:21:32;94620.53;;;32.60;28.09
11347;BME280;5728;42.722;23.258;2023-07-29T09:24:04;94607.06;;;32.52;29.14
11347;BME280;5728;42.722;23.258;2023-07-29T09:26:33;94614.72;;;32.72;27.87
11347;BME280;5728;42.722;23.258;2023-07-29T09:29:00;94608.06;;;31.46;29.04
11347;BME280;5728;42.722;23.258;2023-07-29T09:31:28;94602.34;;;30.13;30.90
11347;BME280;5728;42.722;23.258;2023-07-29T09:33:57;94601.97;;;29.80;31.17
11347;BME280;5728;42.722;23.258;2023-07-29T09:36:24;94599.13;;;31.28;29.93
11347;BME280;5728;42.722;23.258;2023-07-29T09:38:55;94597.50;;;31.88;29.08
11347;BME280;5728;42.722;23.258;2023-07-29T09:41:24;94587.41;;;32.51;28.68
11347;BME280;5728;42.722;23.258;2023-07-29T09:43:55;94588.22;;;33.19;28.00
11347;BME280;5728;42.722;23.258;2023-07-29T09:46:25;94595.72;;;33.58;26.85
11347;BME280;5728;42.722;23.258;2023-07-29T09:48:53;94590.00;;;33.93;25.73
11347;BME280;5728;42.722;23.258;2023-07-29T09:51:21;94591.38;;;33.81;25.67
11347;BME280;5728;42.722;23.258;2023-07-29T09:53:49;94598.06;;;33.93;26.20
11347;BME280;5728;42.722;23.258;2023-07-29T09:56:16;94585.81;;;33.90;25.86
11347;BME280;5728;42.722;23.258;2023-07-29T09:58:44;94588.59;;;34.53;25.66
11347;BME280;5728;42.722;23.258;2023-07-29T10:01:12;94573.78;;;34.49;25.75
11347;BME280;5728;42.722;23.258;2023-07-29T10:03:39;94580.25;;;34.87;24.53
11347;BME280;5728;42.722;23.258;2023-07-29T10:06:07;94580.25;;;34.87;24.46
11347;BME280;5728;42.722;23.258;2023-07-29T10:08:34;94583.09;;;34.94;24.32
11347;BME280;5728;42.722;23.258;2023-07-29T10:11:05;94579.75;;;34.21;24.69
11347;BME280;5728;42.722;23.258;2023-07-29T10:13:32;94569.09;;;33.38;25.44
11347;BME280;5728;42.722;23.258;2023-07-29T10:16:01;94574.38;;;33.80;26.04
11347;BME280;5728;42.722;23.258;2023-07-29T10:18:29;94560.59;;;34.08;25.96
11347;BME280;5728;42.722;23.258;2023-07-29T10:20:57;94560.59;;;34.79;25.86
11347;BME280;5728;42.722;23.258;2023-07-29T10:23:26;94555.03;;;35.19;24.34
11347;BME280;5728;42.722;23.258;2023-07-29T10:25:58;94552.22;;;35.35;24.43
11347;BME280;5728;42.722;23.258;2023-07-29T10:28:29;94551.63;;;34.86;24.22
11347;BME280;5728;42.722;23.258;2023-07-29T10:30:57;94548.56;;;34.34;24.60
11347;BME280;5728;42.722;23.258;2023-07-29T10:33:25;94537.44;;;34.45;24.14
11347;BME280;5728;42.722;23.258;2023-07-29T10:35:53;94533.56;;;34.56;24.60
11347;BME280;5728;42.722;23.258;2023-07-29T10:38:21;94529.59;;;34.75;24.76
11347;BME280;5728;42.722;23.258;2023-07-29T10:40:51;94534.97;;;35.44;23.81
11347;BME280;5728;42.722;23.258;2023-07-29T10:43:25;94538.84;;;35.72;22.72
11347;BME280;5728;42.722;23.258;2023-07-29T10:45:55;94539.81;;;36.31;22.40
11347;BME280;5728;42.722;23.258;2023-07-29T10:48:42;94530.50;;;35.97;22.46
11347;BME280;5728;42.722;23.258;2023-07-29T10:51:28;94530.00;;;35.56;23.07
11347;BME280;5728;42.722;23.258;2023-07-29T10:53:57;94533.91;;;35.53;23.21
11347;BME280;5728;42.722;23.258;2023-07-29T10:56:26;94528.81;;;35.96;21.70
11347;BME280;5728;42.722;23.258;2023-07-29T10:58:55;94526.22;;;36.39;21.68
11347;BME280;5728;42.722;23.258;2023-07-29T11:01:29;94521.59;;;36.63;21.49
11347;BME280;5728;42.722;23.258;2023-07-29T11:04:25;94519.78;;;36.84;21.33
11347;BME280;5728;42.722;23.258;2023-07-29T11:07:20;94522.84;;;37.67;21.39
11347;BME280;5728;42.722;23.258;2023-07-29T11:10:01;94519.38;;;37.17;20.50
11347;BME280;5728;42.722;23.258;2023-07-29T11:12:37;94508.94;;;37.14;20.40
11347;BME280;5728;42.722;23.258;2023-07-29T11:15:12;94509.78;;;37.14;21.18
11347;BME280;5728;42.722;23.258;2023-07-29T11:17:40;94501.41;;;37.45;20.50
11347;BME280;5728;42.722;23.258;2023-07-29T11:20:09;94501.63;;;38.13;20.46
11347;BME280;5728;42.722;23.258;2023-07-29T11:22:37;94512.34;;;37.58;20.79
11347;BME280;5728;42.722;23.258;2023-07-29T11:25:05;94501.50;;;38.00;20.50
11347;BME280;5728;42.722;23.258;2023-07-29T11:27:33;94506.28;;;37.98;19.73
11347;BME280;5728;42.722;23.258;2023-07-29T11:30:01;94509.00;;;37.98;19.08
11347;BME280;5728;42.722;23.258;2023-07-29T11:32:28;94502.69;;;37.49;19.63
11347;BME280;5728;42.722;23.258;2023-07-29T11:34:55;94503.22;;;38.08;19.48
11347;BME280;5728;42.722;23.258;2023-07-29T11:37:23;94498.84;;;38.35;19.29
11347;BME280;5728;42.722;23.258;2023-07-29T11:39:50;94494.47;;;38.68;19.18
11347;BME280;5728;42.722;23.258;2023-07-29T11:42:16;94498.16;;;38.54;19.08
11347;BME280;5728;42.722;23.258;2023-07-29T11:44:43;94482.50;;;36.94;20.87
11347;BME280;5728;42.722;23.258;2023-07-29T11:47:11;94496.16;;;37.64;20.26
11347;BME280;5728;42.722;23.258;2023-07-29T11:49:39;94491.53;;;35.62;21.51
11347;BME280;5728;42.722;23.258;2023-07-29T11:52:07;94486.69;;;36.97;21.34
11347;BME280;5728;42.722;23.258;2023-07-29T11:54:36;94482.22;;;37.61;20.34
11347;BME280;5728;42.722;23.258;2023-07-29T11:57:05;94478.13;;;37.93;19.81
11347;BME280;5728;42.722;23.258;2023-07-29T11:59:33;94479.03;;;38.62;20.05
11347;BME280;5728;42.722;23.258;2023-07-29T12:02:00;94480.44;;;37.75;19.72
11347;BME280;5728;42.722;23.258;2023-07-29T12:04:27;94468.25;;;38.41;19.65
11347;BME280;5728;42.722;23.258;2023-07-29T12:06:55;94460.69;;;38.64;19.04
11347;BME280;5728;42.722;23.258;2023-07-29T12:09:22;94471.41;;;38.85;19.21
11347;BME280;5728;42.722;23.258;2023-07-29T12:11:50;94460.84;;;39.03;18.44
11347;BME280;5728;42.722;23.258;2023-07-29T12:14:17;94470.72;;;37.59;19.49
11347;BME280;5728;42.722;23.258;2023-07-29T12:16:44;94457.16;;;38.01;19.88
11347;BME280;5728;42.722;23.258;2023-07-29T12:19:12;94457.22;;;37.87;19.32
11347;BME280;5728;42.722;23.258;2023-07-29T12:21:40;94454.75;;;36.71;20.69
11347;BME280;5728;42.722;23.258;2023-07-29T12:24:06;94460.19;;;36.13;20.76
11347;BME280;5728;42.722;23.258;2023-07-29T12:26:35;94455.69;;;36.64;20.03
11347;BME280;5728;42.722;23.258;2023-07-29T12:29:12;94458.50;;;37.06;20.04
11347;BME280;5728;42.722;23.258;2023-07-29T12:31:39;94451.63;;;37.25;20.18
11347;BME280;5728;42.722;23.258;2023-07-29T12:34:06;94448.78;;;37.96;19.55
11347;BME280;5728;42.722;23.258;2023-07-29T12:36:42;94452.94;;;37.50;18.93
11347;BME280;5728;42.722;23.258;2023-07-29T12:39:16;94451.69;;;36.45;19.60
11347;BME280;5728;42.722;23.258;2023-07-29T12:41:44;94451.44;;;35.13;20.84
11347;BME280;5728;42.722;23.258;2023-07-29T12:44:12;94447.06;;;36.10;20.55
11347;BME280;5728;42.722;23.258;2023-07-29T12:46:38;94454.78;;;36.13;20.68
11347;BME280;5728;42.722;23.258;2023-07-29T12:49:05;94451.09;;;36.93;20.21
11347;BME280;5728;42.722;23.258;2023-07-29T12:51:32;94444.41;;;36.75;19.67
11347;BME280;5728;42.722;23.258;2023-07-29T12:54:00;94447.25;;;37.02;19.80
11347;BME280;5728;42.722;23.258;2023-07-29T12:56:26;94448.78;;;37.12;18.99
11347;BME280;5728;42.722;23.258;2023-07-29T12:58:53;94445.84;;;37.28;19.48
11347;BME280;5728;42.722;23.258;2023-07-29T13:01:21;94443.66;;;38.42;18.29
11347;BME280;5728;42.722;23.258;2023-07-29T13:03:48;94443.56;;;38.63;17.89